createdAt,value
2019-01-03T10:38:21.041Z,54.30
2019-01-03T10:40:50.274Z,53.90
2019-01-03T10:56:18.468Z,52.80
2019-01-03T18:29:34.156Z,56.00
2019-01-03T18:32:02.714Z,56.10
2019-01-03T18:35:27.193Z,55.80
2019-01-03T18:41:43.546Z,56.40
2019-01-03T18:44:52.084Z,55.90
2019-01-03T18:47:21.140Z,56.20
2019-01-03T18:50:26.959Z,56.00
2019-01-03T18:56:23.883Z,56.00
2019-01-03T18:58:56.599Z,55.90
2019-01-03T19:01:25.215Z,55.90
2019-01-03T19:03:56.554Z,55.70
2019-01-03T19:21:07.365Z,54.60
2019-01-03T19:23:36.238Z,54.60
2019-01-03T19:26:04.999Z,54.40
2019-01-03T19:28:33.739Z,54.20
2019-01-03T19:34:30.988Z,54.10
2019-01-03T19:40:55.260Z,53.80
2019-01-03T19:43:43.426Z,53.70
2019-01-03T19:46:12.339Z,53.70
2019-01-03T19:48:40.954Z,53.60
2019-01-03T19:51:28.944Z,53.40
2019-01-03T19:53:57.564Z,53.50
2019-01-03T19:56:45.595Z,53.20
2019-01-03T19:59:14.177Z,52.80
2019-01-03T20:02:02.195Z,53.40
2019-01-03T20:04:50.334Z,53.20
2019-01-03T20:07:19.432Z,53.00
2019-01-03T20:09:48.009Z,53.20
2019-01-03T20:12:16.865Z,53.20
2019-01-03T20:14:45.499Z,53.10
2019-01-03T20:17:33.703Z,53.00
2019-01-03T20:20:02.846Z,53.20
2019-01-03T20:22:31.441Z,53.20
2019-01-03T20:25:00.010Z,53.00
2019-01-03T20:27:41.550Z,52.70
2019-01-03T20:30:10.678Z,52.90
2019-01-03T20:32:39.290Z,52.80
2019-01-03T20:35:07.883Z,52.80
2019-01-03T20:37:36.461Z,52.60
2019-01-03T20:40:05.110Z,52.70
2019-01-03T20:42:53.196Z,52.70
2019-01-03T20:45:41.347Z,52.70
2019-01-03T20:48:29.787Z,53.10
2019-01-03T20:50:58.887Z,52.60
2019-01-03T20:53:27.476Z,52.60
2019-01-03T20:56:15.914Z,52.70
2019-01-03T21:01:54.783Z,52.40
2019-01-03T21:04:23.427Z,52.60
2019-01-03T21:06:52.251Z,52.70
2019-01-03T21:09:55.774Z,52.60
2019-01-03T21:12:24.956Z,52.40
2019-01-03T21:21:50.964Z,52.50
2019-01-03T22:05:57.693Z,52.50
2019-01-03T22:27:14.877Z,52.50
2019-01-03T22:49:57.592Z,52.60
2019-01-03T23:35:01.710Z,52.90
2019-01-03T23:43:50.278Z,53.30
2019-01-03T23:46:18.886Z,53.70
2019-01-03T23:48:48.035Z,53.80
2019-01-03T23:51:16.896Z,54.00
2019-01-03T23:53:45.481Z,54.10
2019-01-03T23:56:36.557Z,54.30
2019-01-03T23:59:05.171Z,54.30
